sensor_id;sensor_type;location;lat;lon;timestamp;pressure;altitude;pressure_sealevel;temperature;humidity
2711;BME280;20721;47.402;8.550;2022-11-04T00:00:16;95436;;;11.50;59.71
2711;BME280;20721;47.402;8.550;2022-11-04T00:01:16;95429;;;11.41;60.79
2711;BME280;20721;47.402;8.550;2022-11-04T00:02:16;95438;;;11.34;60.69
2711;BME280;20721;47.402;8.550;2022-11-04T00:03:16;95435;;;11.28;60.73
2711;BME280;20721;47.402;8.550;2022-11-04T00:04:17;95436;;;11.26;61.07
2711;BME280;20721;47.402;8.550;2022-11-04T00:05:16;95434;;;11.18;61.21
2711;BME280;20721;47.402;8.550;2022-11-04T00:06:16;95434;;;11.17;60.94
2711;BME280;20721;47.402;8.550;2022-11-04T00:07:26;95439;;;11.09;61.45
2711;BME280;20721;47.402;8.550;2022-11-04T00:08:23;95436;;;11.03;61.62
2711;BME280;20721;47.402;8.550;2022-11-04T00:10:16;95431;;;11.14;62.01
2711;BME280;20721;47.402;8.550;2022-11-04T00:11:26;95429;;;11.27;61.07
2711;BME280;20721;47.402;8.550;2022-11-04T00:12:23;95428;;;11.37;61.27
2711;BME280;20721;47.402;8.550;2022-11-04T00:13:16;95425;;;11.44;61.12
2711;BME280;20721;47.402;8.550;2022-11-04T00:14:16;95420;;;11.52;60.76
2711;BME280;20721;47.402;8.550;2022-11-04T00:15:26;95434;;;11.56;60.38
2711;BME280;20721;47.402;8.550;2022-11-04T00:16:26;95423;;;11.50;59.67
2711;BME280;20721;47.402;8.550;2022-11-04T00:17:20;95424;;;11.42;60.21
2711;BME280;20721;47.402;8.550;2022-11-04T00:18:16;95416;;;11.41;60.14
2711;BME280;20721;47.402;8.550;2022-11-04T00:19:16;95422;;;11.39;60.11
2711;BME280;20721;47.402;8.550;2022-11-04T00:20:26;95423;;;11.24;60.33
2711;BME280;20721;47.402;8.550;2022-11-04T00:21:26;95423;;;11.17;60.47
2711;BME280;20721;47.402;8.550;2022-11-04T00:22:26;95427;;;11.09;60.79
2711;BME280;20721;47.402;8.550;2022-11-04T00:23:26;95422;;;11.10;61.07
2711;BME280;20721;47.402;8.550;2022-11-04T00:24:26;95416;;;10.96;61.40
2711;BME280;20721;47.402;8.550;2022-11-04T00:25:26;95419;;;10.95;61.46
2711;BME280;20721;47.402;8.550;2022-11-04T00:26:26;95422;;;11.03;60.74
2711;BME280;20721;47.402;8.550;2022-11-04T00:27:26;95419;;;10.93;60.61
2711;BME280;20721;47.402;8.550;2022-11-04T00:28:26;95408;;;10.85;60.20
2711;BME280;20721;47.402;8.550;2022-11-04T00:29:16;95412;;;10.84;60.54
2711;BME280;20721;47.402;8.550;2022-11-04T00:30:16;95412;;;10.83;60.23
2711;BME280;20721;47.402;8.550;2022-11-04T00:31:26;95408;;;10.90;59.39
2711;BME280;20721;47.402;8.550;2022-11-04T00:32:26;95412;;;10.98;59.88
2711;BME280;20721;47.402;8.550;2022-11-04T00:33:26;95411;;;11.06;59.38
2711;BME280;20721;47.402;8.550;2022-11-04T00:34:16;95407;;;11.09;59.26
2711;BME280;20721;47.402;8.550;2022-11-04T00:35:16;95407;;;11.18;58.88
2711;BME280;20721;47.402;8.550;2022-11-04T00:36:16;95400;;;11.31;59.28
2711;BME280;20721;47.402;8.550;2022-11-04T00:37:16;95403;;;11.32;58.79
2711;BME280;20721;47.402;8.550;2022-11-04T00:38:16;95401;;;11.31;58.75
2711;BME280;20721;47.402;8.550;2022-11-04T00:39:16;95407;;;11.32;58.55
2711;BME280;20721;47.402;8.550;2022-11-04T00:40:16;95412;;;11.39;58.78
2711;BME280;20721;47.402;8.550;2022-11-04T00:41:26;95404;;;11.34;57.86
2711;BME280;20721;47.402;8.550;2022-11-04T00:42:16;95408;;;11.31;59.00
2711;BME280;20721;47.402;8.550;2022-11-04T00:43:16;95404;;;11.36;58.75
2711;BME280;20721;47.402;8.550;2022-11-04T00:44:16;95407;;;11.45;58.37
2711;BME280;20721;47.402;8.550;2022-11-04T00:45:16;95407;;;11.56;58.69
2711;BME280;20721;47.402;8.550;2022-11-04T00:46:16;95409;;;11.58;57.86
2711;BME280;20721;47.402;8.550;2022-11-04T00:47:16;95412;;;11.63;58.10
2711;BME280;20721;47.402;8.550;2022-11-04T00:48:16;95405;;;11.61;57.70
2711;BME280;20721;47.402;8.550;2022-11-04T00:49:16;95405;;;11.62;57.76
2711;BME280;20721;47.402;8.550;2022-11-04T00:50:16;95405;;;11.66;57.61
2711;BME280;20721;47.402;8.550;2022-11-04T00:51:16;95402;;;11.65;57.11
2711;BME280;20721;47.402;8.550;2022-11-04T00:52:16;95405;;;11.53;57.32
2711;BME280;20721;47.402;8.550;2022-11-04T00:53:16;95401;;;11.49;57.83
2711;BME280;20721;47.402;8.550;2022-11-04T00:54:16;95403;;;11.58;57.12
2711;BME280;20721;47.402;8.550;2022-11-04T00:55:16;95397;;;11.68;57.31
2711;BME280;20721;47.402;8.550;2022-11-04T00:56:16;95389;;;11.75;57.16
2711;BME280;20721;47.402;8.550;2022-11-04T00:57:16;95387;;;11.78;56.71
2711;BME280;20721;47.402;8.550;2022-11-04T00:58:16;95382;;;11.83;57.11
2711;BME280;20721;47.402;8.550;2022-11-04T00:59:16;95379;;;11.88;56.45
2711;BME280;20721;47.402;8.550;2022-11-04T01:00:16;95371;;;11.96;56.36
2711;BME280;20721;47.402;8.550;2022-11-04T01:01:17;95383;;;11.93;55.23
2711;BME280;20721;47.402;8.550;2022-11-04T01:02:16;95375;;;11.96;55.34
2711;BME280;20721;47.402;8.550;2022-11-04T01:03:16;95375;;;11.97;56.13
2711;BME280;20721;47.402;8.550;2022-11-04T01:04:16;95373;;;12.01;56.12
2711;BME280;20721;47.402;8.550;2022-11-04T01:05:16;95376;;;12.03;55.28
2711;BME280;20721;47.402;8.550;2022-11-04T01:06:17;95380;;;11.97;55.33
2711;BME280;20721;47.402;8.550;2022-11-04T01:08:16;95379;;;11.98;56.10
2711;BME280;20721;47.402;8.550;2022-11-04T01:09:16;95373;;;12.02;56.09
2711;BME280;20721;47.402;8.550;2022-11-04T01:10:16;95376;;;12.07;55.96
2711;BME280;20721;47.402;8.550;2022-11-04T01:11:16;95375;;;12.08;55.57
2711;BME280;20721;47.402;8.550;2022-11-04T01:12:16;95376;;;12.03;55.14
2711;BME280;20721;47.402;8.550;2022-11-04T01:14:16;95382;;;12.02;55.51
2711;BME280;20721;47.402;8.550;2022-11-04T01:15:16;95383;;;12.07;55.88
2711;BME280;20721;47.402;8.550;2022-11-04T01:16:16;95381;;;12.10;55.64
2711;BME280;20721;47.402;8.550;2022-11-04T01:17:16;95387;;;12.16;55.52
2711;BME280;20721;47.402;8.550;2022-11-04T01:18:16;95389;;;12.17;55.46
2711;BME280;20721;47.402;8.550;2022-11-04T01:20:16;95393;;;12.18;55.41
2711;BME280;20721;47.402;8.550;2022-11-04T01:21:16;95389;;;12.20;55.58
2711;BME280;20721;47.402;8.550;2022-11-04T01:22:16;95392;;;12.23;55.42
2711;BME280;20721;47.402;8.550;2022-11-04T01:23:16;95391;;;12.25;55.37
2711;BME280;20721;47.402;8.550;2022-11-04T01:24:16;95384;;;12.26;55.20
2711;BME280;20721;47.402;8.550;2022-11-04T01:25:17;95385;;;12.24;54.88
2711;BME280;20721;47.402;8.550;2022-11-04T01:26:18;95391;;;12.11;55.01
2711;BME280;20721;47.402;8.550;2022-11-04T01:27:16;95392;;;12.08;55.34
2711;BME280;20721;47.402;8.550;2022-11-04T01:28:16;95392;;;12.07;55.19
2711;BME280;20721;47.402;8.550;2022-11-04T01:29:16;95393;;;12.08;55.64
2711;BME280;20721;47.402;8.550;2022-11-04T01:30:16;95393;;;12.11;55.70
2711;BME280;20721;47.402;8.550;2022-11-04T01:31:17;95396;;;12.15;55.78
2711;BME280;20721;47.402;8.550;2022-11-04T01:32:16;95401;;;12.17;55.67
2711;BME280;20721;47.402;8.550;2022-11-04T01:33:16;95405;;;12.21;55.72
2711;BME280;20721;47.402;8.550;2022-11-04T01:34:16;95410;;;12.26;55.42
2711;BME280;20721;47.402;8.550;2022-11-04T01:35:16;95412;;;12.29;55.29
2711;BME280;20721;47.402;8.550;2022-11-04T01:36:16;95414;;;12.31;55.11
2711;BME280;20721;47.402;8.550;2022-11-04T01:37:16;95417;;;12.33;55.19
2711;BME280;20721;47.402;8.550;2022-11-04T01:38:16;95412;;;12.30;54.86
2711;BME280;20721;47.402;8.550;2022-11-04T01:39:16;95412;;;12.29;55.28
2711;BME280;20721;47.402;8.550;2022-11-04T01:40:16;95410;;;12.31;55.27
2711;BME280;20721;47.402;8.550;2022-11-04T01:41:17;95408;;;12.33;55.43
2711;BME280;20721;47.402;8.550;2022-11-04T01:42:19;95408;;;12.34;55.25
2711;BME280;20721;47.402;8.550;2022-11-04T01:43:17;95410;;;12.35;55.46
2711;BME280;20721;47.402;8.550;2022-11-04T01:45:17;95408;;;12.37;55.35
2711;BME280;20721;47.402;8.550;2022-11-04T01:46:22;95406;;;12.38;55.38
2711;BME280;20721;47.402;8.550;2022-11-04T01:47:18;95409;;;12.39;55.47
2711;BME280;20721;47.402;8.550;2022-11-04T01:48:18;95405;;;12.37;55.63
2711;BME280;20721;47.402;8.550;2022-11-04T01:49:21;95409;;;12.34;55.67
2711;BME280;20721;47.402;8.550;2022-11-04T01:51:16;95410;;;12.36;55.74
2711;BME280;20721;47.402;8.550;2022-11-04T01:52:17;95406;;;12.39;55.98
2711;BME280;20721;47.402;8.550;2022-11-04T01:54:16;95408;;;12.37;55.75
2711;BME280;20721;47.402;8.550;2022-11-04T01:55:18;95400;;;12.35;55.80
2711;BME280;20721;47.402;8.550;2022-11-04T01:56:16;95401;;;12.36;55.97
2711;BME280;20721;47.402;8.550;2022-11-04T01:57:18;95393;;;12.37;56.02
2711;BME280;20721;47.402;8.550;2022-11-04T01:58:17;95386;;;12.40;56.34
2711;BME280;20721;47.402;8.550;2022-11-04T01:59:19;95382;;;12.42;56.28
2711;BME280;20721;47.402;8.550;2022-11-04T02:00:17;95377;;;12.45;56.19
2711;BME280;20721;47.402;8.550;2022-11-04T02:01:17;95383;;;12.48;56.42
2711;BME280;20721;47.402;8.550;2022-11-04T02:02:17;95376;;;12.49;56.56
2711;BME280;20721;47.402;8.550;2022-11-04T02:03:19;95369;;;12.50;56.81
2711;BME280;20721;47.402;8.550;2022-11-04T02:04:26;95371;;;12.52;56.83
2711;BME280;20721;47.402;8.550;2022-11-04T02:05:16;95373;;;12.53;56.75
2711;BME280;20721;47.402;8.550;2022-11-04T02:06:17;95376;;;12.55;56.72
2711;BME280;20721;47.402;8.550;2022-11-04T02:07:16;95377;;;12.57;56.91
2711;BME280;20721;47.402;8.550;2022-11-04T02:10:17;95380;;;12.56;57.19
2711;BME280;20721;47.402;8.550;2022-11-04T02:11:26;95372;;;12.51;57.10
2711;BME280;20721;47.402;8.550;2022-11-04T02:12:26;95373;;;12.50;57.13
2711;BME280;20721;47.402;8.550;2022-11-04T02:13:16;95377;;;12.47;56.63
2711;BME280;20721;47.402;8.550;2022-11-04T02:14:16;95371;;;12.42;56.35
2711;BME280;20721;47.402;8.550;2022-11-04T02:15:18;95376;;;12.39;56.69
2711;BME280;20721;47.402;8.550;2022-11-04T02:16:22;95372;;;12.37;56.82
2711;BME280;20721;47.402;8.550;2022-11-04T02:31:19;95366;;;12.20;56.99
2711;BME280;20721;47.402;8.550;2022-11-04T02:32:18;95366;;;12.19;57.13
2711;BME280;20721;47.402;8.550;2022-11-04T02:36:21;95367;;;12.15;57.09
2711;BME280;20721;47.402;8.550;2022-11-04T02:37:21;95366;;;12.12;57.19
2711;BME280;20721;47.402;8.550;2022-11-04T02:38:20;95369;;;12.06;57.24
2711;BME280;20721;47.402;8.550;2022-11-04T02:44:18;95368;;;12.05;57.69
2711;BME280;20721;47.402;8.550;2022-11-04T02:45:19;95371;;;12.07;57.79
2711;BME280;20721;47.402;8.550;2022-11-04T02:46:19;95364;;;12.08;57.60
2711;BME280;20721;47.402;8.550;2022-11-04T02:47:18;95366;;;12.10;57.57
2711;BME280;20721;47.402;8.550;2022-11-04T02:48:26;95363;;;12.13;57.69
2711;BME280;20721;47.402;8.550;2022-11-04T02:49:18;95353;;;12.15;57.49
2711;BME280;20721;47.402;8.550;2022-11-04T02:51:25;95354;;;12.17;57.56
2711;BME280;20721;47.402;8.550;2022-11-04T02:52:18;95354;;;12.18;57.50
2711;BME280;20721;47.402;8.550;2022-11-04T02:53:19;95356;;;12.16;57.58
2711;BME280;20721;47.402;8.550;2022-11-04T02:54:19;95360;;;12.15;57.47
2711;BME280;20721;47.402;8.550;2022-11-04T02:55:18;95362;;;12.12;57.56
2711;BME280;20721;47.402;8.550;2022-11-04T02:56:16;95358;;;12.10;57.79
2711;BME280;20721;47.402;8.550;2022-11-04T02:57:18;95359;;;12.12;57.70
2711;BME280;20721;47.402;8.550;2022-11-04T02:59:22;95359;;;12.06;57.46
2711;BME280;20721;47.402;8.550;2022-11-04T03:00:19;95357;;;12.03;57.88
2711;BME280;20721;47.402;8.550;2022-11-04T03:01:17;95361;;;12.01;57.93
2711;BME280;20721;47.402;8.550;2022-11-04T03:03:18;95358;;;12.02;57.83
2711;BME280;20721;47.402;8.550;2022-11-04T03:05:17;95359;;;11.94;57.78
2711;BME280;20721;47.402;8.550;2022-11-04T03:06:18;95356;;;11.85;58.07
2711;BME280;20721;47.402;8.550;2022-11-04T03:07:17;95358;;;11.86;58.23
2711;BME280;20721;47.402;8.550;2022-11-04T03:08:18;95358;;;11.83;58.16
2711;BME280;20721;47.402;8.550;2022-11-04T03:09:17;95353;;;11.84;58.18
2711;BME280;20721;47.402;8.550;2022-11-04T03:10:19;95357;;;11.87;58.17
2711;BME280;20721;47.402;8.550;2022-11-04T03:11:17;95352;;;11.86;58.21
2711;BME280;20721;47.402;8.550;2022-11-04T03:12:17;95351;;;11.88;58.20
2711;BME280;20721;47.402;8.550;2022-11-04T03:13:27;95348;;;11.89;58.29
2711;BME280;20721;47.402;8.550;2022-11-04T03:14:18;95349;;;11.90;58.39
2711;BME280;20721;47.402;8.550;2022-11-04T03:15:18;95345;;;11.92;58.29
2711;BME280;20721;47.402;8.550;2022-11-04T03:16:18;95349;;;11.97;58.21
2711;BME280;20721;47.402;8.550;2022-11-04T03:17:21;95348;;;11.99;58.17
2711;BME280;20721;47.402;8.550;2022-11-04T03:20:17;95351;;;11.97;57.68
2711;BME280;20721;47.402;8.550;2022-11-04T03:21:17;95350;;;11.95;57.80
2711;BME280;20721;47.402;8.550;2022-11-04T03:22:17;95346;;;11.94;57.82
2711;BME280;20721;47.402;8.550;2022-11-04T03:23:16;95347;;;11.98;57.78
2711;BME280;20721;47.402;8.550;2022-11-04T03:24:16;95347;;;12.00;57.99
2711;BME280;20721;47.402;8.550;2022-11-04T03:25:16;95346;;;12.02;57.91
2711;BME280;20721;47.402;8.550;2022-11-04T03:26:19;95342;;;12.04;57.71
2711;BME280;20721;47.402;8.550;2022-11-04T03:31:19;95359;;;12.08;57.53
2711;BME280;20721;47.402;8.550;2022-11-04T03:33:18;95364;;;12.07;57.14
2711;BME280;20721;47.402;8.550;2022-11-04T03:34:17;95370;;;11.92;57.23
2711;BME280;20721;47.402;8.550;2022-11-04T03:35:17;95376;;;11.88;57.68
2711;BME280;20721;47.402;8.550;2022-11-04T03:36:17;95375;;;11.85;57.78
2711;BME280;20721;47.402;8.550;2022-11-04T03:37:17;95378;;;11.86;57.88
2711;BME280;20721;47.402;8.550;2022-11-04T03:38:16;95379;;;11.89;57.86
2711;BME280;20721;47.402;8.550;2022-11-04T03:39:17;95381;;;11.91;57.91
2711;BME280;20721;47.402;8.550;2022-11-04T03:40:17;95383;;;11.94;57.65
2711;BME280;20721;47.402;8.550;2022-11-04T03:41:17;95382;;;11.96;57.65
2711;BME280;20721;47.402;8.550;2022-11-04T03:42:20;95383;;;11.99;57.70
2711;BME280;20721;47.402;8.550;2022-11-04T03:43:19;95383;;;12.03;57.83
2711;BME280;20721;47.402;8.550;2022-11-04T03:44:17;95382;;;12.08;57.88
2711;BME280;20721;47.402;8.550;2022-11-04T03:45:17;95385;;;12.13;57.56
2711;BME280;20721;47.402;8.550;2022-11-04T03:46:17;95381;;;12.15;57.30
2711;BME280;20721;47.402;8.550;2022-11-04T03:47:19;95378;;;12.17;57.57
2711;BME280;20721;47.402;8.550;2022-11-04T03:48:17;95379;;;12.19;57.60
2711;BME280;20721;47.402;8.550;2022-11-04T03:49:17;95377;;;12.20;57.46
2711;BME280;20721;47.402;8.550;2022-11-04T03:50:19;95381;;;12.22;57.31
2711;BME280;20721;47.402;8.550;2022-11-04T03:51:16;95371;;;12.24;57.33
2711;BME280;20721;47.402;8.550;2022-11-04T03:52:17;95376;;;12.18;56.40
2711;BME280;20721;47.402;8.550;2022-11-04T03:53:18;95376;;;12.01;56.68
2711;BME280;20721;47.402;8.550;2022-11-04T03:54:17;95374;;;11.90;57.52
2711;BME280;20721;47.402;8.550;2022-11-04T03:55:17;95372;;;11.86;57.42
2711;BME280;20721;47.402;8.550;2022-11-04T03:56:36;95376;;;11.71;57.97
2711;BME280;20721;47.402;8.550;2022-11-04T03:58:23;95375;;;11.74;57.98
2711;BME280;20721;47.402;8.550;2022-11-04T03:59:29;95372;;;11.79;57.70
2711;BME280;20721;47.402;8.550;2022-11-04T04:00:17;95373;;;11.82;57.69
2711;BME280;20721;47.402;8.550;2022-11-04T04:02:19;95372;;;11.91;57.41
2711;BME280;20721;47.402;8.550;2022-11-04T04:03:21;95368;;;11.94;57.54
2711;BME280;20721;47.402;8.550;2022-11-04T04:05:22;95364;;;12.00;57.56
2711;BME280;20721;47.402;8.550;2022-11-04T04:06:18;95364;;;12.01;57.59
2711;BME280;20721;47.402;8.550;2022-11-04T04:07:18;95359;;;12.02;57.43
2711;BME280;20721;47.402;8.550;2022-11-04T04:09:21;95361;;;12.04;57.15
2711;BME280;20721;47.402;8.550;2022-11-04T04:10:30;95359;;;12.03;57.04
2711;BME280;20721;47.402;8.550;2022-11-04T04:11:18;95356;;;12.04;57.18
2711;BME280;20721;47.402;8.550;2022-11-04T04:14:30;95351;;;11.96;57.32
2711;BME280;20721;47.402;8.550;2022-11-04T04:18:18;95337;;;12.00;57.32
2711;BME280;20721;47.402;8.550;2022-11-04T04:19:18;95334;;;12.01;57.32
2711;BME280;20721;47.402;8.550;2022-11-04T04:20:18;95327;;;12.02;57.34
2711;BME280;20721;47.402;8.550;2022-11-04T04:21:19;95325;;;12.04;57.21
2711;BME280;20721;47.402;8.550;2022-11-04T04:22:18;95320;;;12.05;57.24
2711;BME280;20721;47.402;8.550;2022-11-04T04:23:27;95315;;;12.04;57.23
2711;BME280;20721;47.402;8.550;2022-11-04T04:24:34;95314;;;12.03;57.31
2711;BME280;20721;47.402;8.550;2022-11-04T04:25:27;95309;;;12.05;57.35
2711;BME280;20721;47.402;8.550;2022-11-04T04:28:17;95296;;;12.06;57.37
2711;BME280;20721;47.402;8.550;2022-11-04T04:30:17;95297;;;12.07;57.32
2711;BME280;20721;47.402;8.550;2022-11-04T04:32:17;95301;;;12.05;57.40
2711;BME280;20721;47.402;8.550;2022-11-04T04:33:17;95306;;;12.03;57.44
2711;BME280;20721;47.402;8.550;2022-11-04T04:34:18;95308;;;12.02;57.56
2711;BME280;20721;47.402;8.550;2022-11-04T04:38:27;95329;;;12.01;57.28
2711;BME280;20721;47.402;8.550;2022-11-04T04:39:29;95335;;;12.00;57.44
2711;BME280;20721;47.402;8.550;2022-11-04T04:40:34;95337;;;11.98;57.37
2711;BME280;20721;47.402;8.550;2022-11-04T04:41:28;95343;;;11.95;57.52
2711;BME280;20721;47.402;8.550;2022-11-04T04:42:34;95344;;;11.94;57.54
2711;BME280;20721;47.402;8.550;2022-11-04T04:44:27;95337;;;11.96;57.75
2711;BME280;20721;47.402;8.550;2022-11-04T04:45:18;95332;;;11.98;57.79
2711;BME280;20721;47.402;8.550;2022-11-04T04:46:17;95328;;;12.00;57.70
2711;BME280;20721;47.402;8.550;2022-11-04T04:48:17;95324;;;12.02;57.72
2711;BME280;20721;47.402;8.550;2022-11-04T04:49:17;95321;;;12.04;57.52
2711;BME280;20721;47.402;8.550;2022-11-04T04:51:17;95324;;;12.05;57.52
2711;BME280;20721;47.402;8.550;2022-11-04T04:52:17;95325;;;12.06;57.66
2711;BME280;20721;47.402;8.550;2022-11-04T04:53:17;95328;;;12.04;57.66
2711;BME280;20721;47.402;8.550;2022-11-04T04:54:17;95321;;;12.03;57.65
2711;BME280;20721;47.402;8.550;2022-11-04T04:55:17;95320;;;12.04;57.60
2711;BME280;20721;47.402;8.550;2022-11-04T04:56:17;95320;;;12.03;57.38
2711;BME280;20721;47.402;8.550;2022-11-04T04:57:17;95316;;;12.02;57.09
2711;BME280;20721;47.402;8.550;2022-11-04T04:59:17;95312;;;12.01;57.22
2711;BME280;20721;47.402;8.550;2022-11-04T05:00:18;95312;;;12.00;57.34
2711;BME280;20721;47.402;8.550;2022-11-04T05:01:17;95310;;;11.99;57.13
2711;BME280;20721;47.402;8.550;2022-11-04T05:02:17;95308;;;12.00;57.15
2711;BME280;20721;47.402;8.550;2022-11-04T05:05:17;95300;;;11.99;57.25
2711;BME280;20721;47.402;8.550;2022-11-04T05:06:17;95296;;;11.98;57.07
2711;BME280;20721;47.402;8.550;2022-11-04T05:07:17;95295;;;12.00;57.35
2711;BME280;20721;47.402;8.550;2022-11-04T05:09:17;95290;;;12.02;57.13
2711;BME280;20721;47.402;8.550;2022-11-04T05:10:17;95286;;;12.04;56.78
2711;BME280;20721;47.402;8.550;2022-11-04T05:11:17;95282;;;12.05;56.67
2711;BME280;20721;47.402;8.550;2022-11-04T05:13:27;95277;;;12.04;56.59
2711;BME280;20721;47.402;8.550;2022-11-04T05:14:17;95272;;;12.03;56.69
2711;BME280;20721;47.402;8.550;2022-11-04T05:18:18;95269;;;12.04;56.56
2711;BME280;20721;47.402;8.550;2022-11-04T05:19:17;95270;;;12.05;56.61
2711;BME280;20721;47.402;8.550;2022-11-04T05:21:18;95274;;;12.07;56.55
2711;BME280;20721;47.402;8.550;2022-11-04T05:22:17;95270;;;12.06;56.38
2711;BME280;20721;47.402;8.550;2022-11-04T05:24:17;95266;;;12.05;56.23
2711;BME280;20721;47.402;8.550;2022-11-04T05:25:17;95263;;;12.04;56.10
2711;BME280;20721;47.402;8.550;2022-11-04T05:26:17;95260;;;12.02;56.13
2711;BME280;20721;47.402;8.550;2022-11-04T05:28:17;95255;;;12.01;56.44
2711;BME280;20721;47.402;8.550;2022-11-04T05:34:17;95259;;;12.02;55.99
2711;BME280;20721;47.402;8.550;2022-11-04T05:35:17;95254;;;12.01;55.95
2711;BME280;20721;47.402;8.550;2022-11-04T05:36:17;95259;;;12.02;55.89
2711;BME280;20721;47.402;8.550;2022-11-04T05:37:17;95261;;;12.01;55.88
2711;BME280;20721;47.402;8.550;2022-11-04T05:38:17;95262;;;12.00;55.87
2711;BME280;20721;47.402;8.550;2022-11-04T05:39:17;95259;;;11.98;55.80
2711;BME280;20721;47.402;8.550;2022-11-04T05:40:17;95261;;;11.97;55.62
2711;BME280;20721;47.402;8.550;2022-11-04T05:41:24;95255;;;11.96;55.51
2711;BME280;20721;47.402;8.550;2022-11-04T05:42:17;95256;;;11.95;55.61
2711;BME280;20721;47.402;8.550;2022-11-04T05:43:17;95256;;;11.94;55.82
2711;BME280;20721;47.402;8.550;2022-11-04T05:45:17;95257;;;11.95;55.90
2711;BME280;20721;47.402;8.550;2022-11-04T05:46:17;95258;;;11.96;55.99
2711;BME280;20721;47.402;8.550;2022-11-04T05:48:17;95256;;;11.97;55.52
2711;BME280;20721;47.402;8.550;2022-11-04T05:49:17;95254;;;11.95;55.62
2711;BME280;20721;47.402;8.550;2022-11-04T05:50:17;95255;;;11.94;55.76
2711;BME280;20721;47.402;8.550;2022-11-04T05:51:18;95256;;;11.95;55.82
2711;BME280;20721;47.402;8.550;2022-11-04T05:53:17;95249;;;11.94;56.17
2711;BME280;20721;47.402;8.550;2022-11-04T05:54:17;95252;;;11.92;56.03
2711;BME280;20721;47.402;8.550;2022-11-04T05:56:17;95256;;;11.91;55.99
2711;BME280;20721;47.402;8.550;2022-11-04T05:57:17;95258;;;11.92;55.92
2711;BME280;20721;47.402;8.550;2022-11-04T05:58:17;95263;;;11.94;55.81
2711;BME280;20721;47.402;8.550;2022-11-04T05:59:17;95264;;;11.95;55.65
2711;BME280;20721;47.402;8.550;2022-11-04T06:01:26;95272;;;11.96;55.72
2711;BME280;20721;47.402;8.550;2022-11-04T06:02:17;95271;;;11.95;55.73
2711;BME280;20721;47.402;8.550;2022-11-04T06:05:17;95283;;;11.94;55.87
2711;BME280;20721;47.402;8.550;2022-11-04T06:06:17;95287;;;11.95;55.81
2711;BME280;20721;47.402;8.550;2022-11-04T06:07:17;95295;;;11.96;55.76
2711;BME280;20721;47.402;8.550;2022-11-04T06:08:17;95297;;;11.93;55.83
2711;BME280;20721;47.402;8.550;2022-11-04T06:09:17;95303;;;11.92;56.01
2711;BME280;20721;47.402;8.550;2022-11-04T06:10:17;95306;;;11.84;55.91
2711;BME280;20721;47.402;8.550;2022-11-04T06:11:17;95308;;;11.81;55.59
2711;BME280;20721;47.402;8.550;2022-11-04T06:12:17;95314;;;11.83;55.59
2711;BME280;20721;47.402;8.550;2022-11-04T06:13:17;95310;;;11.86;54.96
2711;BME280;20721;47.402;8.550;2022-11-04T06:14:19;95314;;;11.73;55.43
2711;BME280;20721;47.402;8.550;2022-11-04T06:15:17;95314;;;11.69;55.80
2711;BME280;20721;47.402;8.550;2022-11-04T06:16:17;95316;;;11.61;55.01
2711;BME280;20721;47.402;8.550;2022-11-04T06:17:18;95311;;;11.42;54.66
2711;BME280;20721;47.402;8.550;2022-11-04T06:18:17;95314;;;11.29;55.40
2711;BME280;20721;47.402;8.550;2022-11-04T06:19:17;95313;;;11.20;55.65
2711;BME280;20721;47.402;8.550;2022-11-04T06:21:21;95316;;;11.27;55.66
2711;BME280;20721;47.402;8.550;2022-11-04T06:22:17;95308;;;11.32;55.49
2711;BME280;20721;47.402;8.550;2022-11-04T06:23:17;95305;;;11.30;55.62
2711;BME280;20721;47.402;8.550;2022-11-04T06:24:17;95311;;;11.36;55.76
2711;BME280;20721;47.402;8.550;2022-11-04T06:25:17;95306;;;11.43;55.54
2711;BME280;20721;47.402;8.550;2022-11-04T06:26:18;95308;;;11.52;55.51
2711;BME280;20721;47.402;8.550;2022-11-04T06:27:17;95300;;;11.59;55.62
2711;BME280;20721;47.402;8.550;2022-11-04T06:28:17;95299;;;11.64;55.25
2711;BME280;20721;47.402;8.550;2022-11-04T06:29:17;95296;;;11.68;55.38
2711;BME280;20721;47.402;8.550;2022-11-04T06:30:17;95296;;;11.73;55.21
2711;BME280;20721;47.402;8.550;2022-11-04T06:31:17;95290;;;11.78;55.17
2711;BME280;20721;47.402;8.550;2022-11-04T06:32:17;95289;;;11.84;55.18
2711;BME280;20721;47.402;8.550;2022-11-04T06:33:17;95283;;;11.89;55.21
2711;BME280;20721;47.402;8.550;2022-11-04T06:34:17;95279;;;11.94;55.17
2711;BME280;20721;47.402;8.550;2022-11-04T06:35:17;95281;;;11.99;54.89
2711;BME280;20721;47.402;8.550;2022-11-04T06:36:17;95281;;;12.05;54.84
2711;BME280;20721;47.402;8.550;2022-11-04T06:37:17;95282;;;12.09;54.75
2711;BME280;20721;47.402;8.550;2022-11-04T06:38:17;95284;;;12.12;54.64
2711;BME280;20721;47.402;8.550;2022-11-04T06:39:17;95284;;;12.15;54.44
2711;BME280;20721;47.402;8.550;2022-11-04T06:40:17;95280;;;12.19;54.29
2711;BME280;20721;47.402;8.550;2022-11-04T06:41:17;95279;;;12.22;54.22
2711;BME280;20721;47.402;8.550;2022-11-04T06:42:17;95282;;;12.24;54.37
2711;BME280;20721;47.402;8.550;2022-11-04T06:43:17;95279;;;12.26;54.44
2711;BME280;20721;47.402;8.550;2022-11-04T06:44:17;95279;;;12.27;53.87
2711;BME280;20721;47.402;8.550;2022-11-04T06:45:17;95276;;;12.25;53.76
2711;BME280;20721;47.402;8.550;2022-11-04T06:48:17;95278;;;12.27;53.93
2711;BME280;20721;47.402;8.550;2022-11-04T06:50:17;95276;;;12.28;53.83
2711;BME280;20721;47.402;8.550;2022-11-04T06:51:17;95276;;;12.30;53.72
2711;BME280;20721;47.402;8.550;2022-11-04T06:53:17;95274;;;12.32;54.13
2711;BME280;20721;47.402;8.550;2022-11-04T06:54:17;95271;;;12.34;54.24
2711;BME280;20721;47.402;8.550;2022-11-04T06:55:17;95272;;;12.37;54.24
2711;BME280;20721;47.402;8.550;2022-11-04T06:56:17;95273;;;12.40;53.84
2711;BME280;20721;47.402;8.550;2022-11-04T06:57:17;95273;;;12.39;53.89
2711;BME280;20721;47.402;8.550;2022-11-04T06:59:18;95269;;;12.38;53.37
2711;BME280;20721;47.402;8.550;2022-11-04T07:00:17;95274;;;12.37;53.51
2711;BME280;20721;47.402;8.550;2022-11-04T07:01:23;95272;;;12.36;53.62
2711;BME280;20721;47.402;8.550;2022-11-04T07:03:17;95274;;;12.32;53.54
2711;BME280;20721;47.402;8.550;2022-11-04T07:05:17;95275;;;12.33;53.73
2711;BME280;20721;47.402;8.550;2022-11-04T07:06:17;95274;;;12.30;53.42
2711;BME280;20721;47.402;8.550;2022-11-04T07:07:17;95273;;;12.29;53.58